Time;durP1;ratioP1;P1;durP2;ratioP2;P2;SDS_P1;SDS_P2;PMS_P1;PMS_P2;Temp;Humidity;BMP_temperature;BMP_pressure;BME280_temperature;BME280_humidity;BME280_pressure;Samples;Min_cycle;Max_cycle;Signal;HPM_P1;HPM_P2
2022/09/01 06:29:19;;;;;;;3.80;1.10;;;18.10;65.50;;;;;;6190756;23;20040;-71
2022/09/01 06:31:46;;;;;;;3.83;1.23;;;18.20;65.90;;;;;;6214302;23;20091;-73
2022/09/01 06:34:16;;;;;;;4.07;1.27;;;18.10;66.00;;;;;;6219778;23;20035;-71
2022/09/01 06:36:42;;;;;;;1.75;0.80;;;18.20;66.10;;;;;;6219477;23;20332;-72
2022/09/01 06:39:18;;;;;;;4.57;0.85;;;18.20;66.10;;;;;;6219128;23;20024;-71
2022/09/01 06:41:48;;;;;;;3.72;1.20;;;18.20;66.20;;;;;;6219203;23;20432;-72
2022/09/01 06:44:14;;;;;;;4.88;0.90;;;18.30;66.30;;;;;;6219191;23;20139;-72
2022/09/01 06:46:40;;;;;;;12.07;2.08;;;18.30;66.20;;;;;;6219784;23;20086;-72
2022/09/01 06:49:10;;;;;;;10.88;1.58;;;18.30;66.20;;;;;;6219217;23;20408;-73
2022/09/01 06:51:36;;;;;;;6.45;1.20;;;18.30;67.00;;;;;;6219425;23;20368;-73
2022/09/01 06:54:02;;;;;;;5.30;0.90;;;18.40;66.40;;;;;;6217567;23;20108;-73
2022/09/01 06:56:30;;;;;;;6.68;1.23;;;18.40;66.40;;;;;;6218196;23;20016;-74
2022/09/01 06:58:56;;;;;;;4.78;0.90;;;18.50;66.40;;;;;;6219116;23;20020;-73
2022/09/01 07:01:23;;;;;;;8.55;1.17;;;18.50;66.50;;;;;;6219568;23;20321;-73
2022/09/01 07:03:51;;;;;;;4.75;0.70;;;18.60;66.50;;;;;;6218982;23;20016;-73
2022/09/01 07:06:23;;;;;;;3.00;0.40;;;18.60;66.40;;;;;;6218398;23;20020;-74
2022/09/01 07:08:48;;;;;;;3.55;0.50;;;18.60;66.30;;;;;;6192281;23;20045;-73
2022/09/01 07:11:26;;;;;;;1.92;0.60;;;18.70;66.30;;;;;;6219012;23;20078;-73
2022/09/01 07:13:53;;;;;;;3.80;0.43;;;18.70;66.30;;;;;;6218932;23;20096;-73
2022/09/01 07:16:22;;;;;;;11.90;0.77;;;18.70;66.30;;;;;;6219367;23;20025;-74
2022/09/01 07:18:50;;;;;;;4.75;0.70;;;18.70;66.20;;;;;;6218392;23;20055;-73
2022/09/01 07:21:17;;;;;;;3.78;0.75;;;18.70;66.20;;;;;;6218773;23;20078;-73
2022/09/01 07:23:43;;;;;;;1.65;1.00;;;18.80;66.40;;;;;;6218540;23;20017;-74
2022/09/01 07:26:10;;;;;;;1.33;0.70;;;18.80;66.70;;;;;;6218661;23;20017;-73
2022/09/01 07:28:36;;;;;;;1.80;0.55;;;18.80;66.80;;;;;;6217281;23;20087;-72
2022/09/01 07:31:04;;;;;;;3.95;0.60;;;18.80;66.80;;;;;;6192394;23;20051;-73
2022/09/01 07:33:32;;;;;;;2.80;0.60;;;18.90;66.80;;;;;;6218919;23;20283;-72
2022/09/01 07:35:58;;;;;;;2.15;0.70;;;18.90;66.70;;;;;;6218284;23;20016;-73
2022/09/01 07:38:25;;;;;;;4.72;0.80;;;18.90;66.90;;;;;;6218585;23;20294;-74
2022/09/01 07:40:53;;;;;;;4.47;1.42;;;18.90;66.90;;;;;;6218422;23;20055;-73
2022/09/01 07:43:30;;;;;;;3.38;1.10;;;18.90;66.90;;;;;;6218530;23;20017;-72
2022/09/01 07:45:58;;;;;;;3.22;0.90;;;19.00;67.00;;;;;;6218708;23;20017;-74
2022/09/01 07:48:26;;;;;;;1.98;0.90;;;18.90;67.00;;;;;;6192391;23;20082;-73
2022/09/01 07:50:55;;;;;;;2.03;0.90;;;18.90;67.10;;;;;;6218162;23;20016;-73
2022/09/01 07:53:28;;;;;;;2.83;1.05;;;19.00;67.30;;;;;;6193024;23;20318;-73
2022/09/01 07:55:55;;;;;;;4.38;1.20;;;19.00;67.40;;;;;;6218765;23;20063;-74
2022/09/01 07:58:24;;;;;;;3.80;1.13;;;19.10;67.40;;;;;;6218849;23;20312;-73
2022/09/01 08:00:52;;;;;;;3.10;0.80;;;19.10;67.50;;;;;;6192482;23;20016;-73
2022/09/01 08:03:20;;;;;;;1.73;0.63;;;19.10;67.30;;;;;;6218433;23;20023;-74
2022/09/01 08:05:47;;;;;;;2.90;0.50;;;19.10;67.20;;;;;;6218910;23;20036;-73
2022/09/01 08:08:13;;;;;;;2.60;0.60;;;19.10;67.20;;;;;;6191915;23;20020;-73
2022/09/01 08:10:40;;;;;;;5.22;0.65;;;19.20;67.20;;;;;;6218759;23;20027;-74
2022/09/01 08:13:07;;;;;;;2.95;0.57;;;19.20;67.30;;;;;;6218382;23;20055;-74
2022/09/01 08:15:33;;;;;;;4.15;0.70;;;19.20;67.40;;;;;;6217806;23;20060;-76
2022/09/01 08:17:59;;;;;;;3.47;0.77;;;19.20;67.30;;;;;;6218678;23;20027;-75
2022/09/01 08:20:25;;;;;;;5.85;0.93;;;19.30;67.30;;;;;;6218564;23;20313;-78
2022/09/01 08:22:50;;;;;;;3.88;0.47;;;19.30;67.60;;;;;;6192890;23;20021;-78
2022/09/01 08:25:17;;;;;;;4.00;1.00;;;19.30;67.40;;;;;;6192602;23;20360;-78
2022/09/01 08:27:42;;;;;;;3.88;0.80;;;19.30;67.40;;;;;;6218219;23;20031;-76
2022/09/01 08:30:11;;;;;;;2.85;0.90;;;19.30;67.40;;;;;;6217697;23;20013;-72
2022/09/01 08:32:40;;;;;;;2.63;0.73;;;19.40;67.40;;;;;;6217930;23;20024;-76
2022/09/01 08:35:09;;;;;;;5.20;0.80;;;19.40;67.40;;;;;;6217353;23;20139;-76
2022/09/01 08:37:35;;;;;;;2.08;0.95;;;19.40;67.50;;;;;;6218144;23;20027;-77
2022/09/01 08:40:01;;;;;;;5.45;0.82;;;19.40;67.40;;;;;;6218876;23;20091;-76
2022/09/01 08:42:26;;;;;;;2.75;0.50;;;19.40;67.40;;;;;;6217678;23;20016;-77
2022/09/01 08:45:23;;;;;;;2.85;0.60;;;19.50;67.50;;;;;;6192233;23;20024;-76
2022/09/01 08:47:56;;;;;;;2.58;0.60;;;19.50;67.40;;;;;;6218567;23;20325;-77
2022/09/01 08:50:21;;;;;;;2.38;0.60;;;19.50;67.40;;;;;;6217869;23;20071;-77
2022/09/01 08:53:08;;;;;;;1.95;0.60;;;19.50;67.40;;;;;;6218086;23;20024;-77
2022/09/01 08:55:41;;;;;;;5.28;1.08;;;19.50;67.30;;;;;;6191880;23;20071;-79
2022/09/01 08:58:09;;;;;;;6.80;0.90;;;19.50;67.50;;;;;;6217550;23;20026;-76
2022/09/01 09:00:43;;;;;;;4.50;0.85;;;19.50;67.30;;;;;;6217999;23;20016;-75
2022/09/01 09:03:32;;;;;;;2.55;0.40;;;19.50;67.30;;;;;;6218041;23;20275;-75
2022/09/01 09:06:24;;;;;;;5.05;0.88;;;19.60;67.30;;;;;;6191563;23;20020;-75
2022/09/01 09:09:20;;;;;;;3.70;0.60;;;19.60;67.30;;;;;;6217861;23;20361;-75
2022/09/01 09:12:02;;;;;;;3.33;0.40;;;19.60;67.20;;;;;;6192308;23;20118;-76
2022/09/01 09:14:49;;;;;;;3.00;0.57;;;19.60;67.30;;;;;;6191209;23;20030;-76
2022/09/01 09:17:18;;;;;;;1.60;0.40;;;19.70;67.40;;;;;;6217885;23;20032;-76
2022/09/01 09:19:45;;;;;;;3.55;1.00;;;19.60;67.30;;;;;;6217709;23;20017;-76
2022/09/01 09:22:14;;;;;;;2.10;0.60;;;19.60;67.30;;;;;;6217620;23;20096;-76
2022/09/01 09:24:46;;;;;;;5.88;0.55;;;19.70;67.30;;;;;;6218179;23;20345;-77
2022/09/01 09:27:21;;;;;;;4.97;0.80;;;19.70;67.40;;;;;;6218233;23;20021;-77
2022/09/01 09:29:50;;;;;;;1.77;0.40;;;19.70;67.10;;;;;;6217974;23;20052;-77
2022/09/01 09:32:20;;;;;;;1.60;0.43;;;19.80;67.30;;;;;;6191468;23;20024;-78
2022/09/01 09:34:46;;;;;;;1.73;0.43;;;19.80;67.40;;;;;;6217600;23;20020;-76
2022/09/01 09:37:27;;;;;;;2.22;0.80;;;19.80;67.40;;;;;;6217176;23;20028;-77
2022/09/01 09:40:14;;;;;;;4.05;0.77;;;19.80;67.00;;;;;;6217567;23;20016;-77
2022/09/01 09:43:00;;;;;;;5.68;1.10;;;19.80;66.80;;;;;;6217355;23;20314;-76
2022/09/01 09:45:35;;;;;;;3.58;0.65;;;19.90;67.10;;;;;;6217869;23;20017;-75
2022/09/01 09:48:09;;;;;;;3.08;0.40;;;19.90;67.30;;;;;;6219739;23;20085;-76
2022/09/01 09:50:42;;;;;;;4.00;0.75;;;19.90;67.20;;;;;;6220776;23;20361;-76
2022/09/01 09:53:25;;;;;;;2.55;0.50;;;19.90;67.20;;;;;;6220081;23;20098;-77
2022/09/01 09:55:54;;;;;;;5.33;0.60;;;19.90;67.00;;;;;;6219758;23;20021;-77
2022/09/01 09:58:25;;;;;;;4.10;1.02;;;19.90;67.00;;;;;;6219607;23;20247;-79
2022/09/01 10:01:04;;;;;;;3.92;0.70;;;19.90;66.90;;;;;;6192761;23;20017;-78
2022/09/01 10:03:36;;;;;;;4.47;1.00;;;19.90;66.60;;;;;;6219503;23;20027;-76
2022/09/01 10:06:04;;;;;;;5.15;1.40;;;20.00;66.80;;;;;;6193098;23;20032;-76
2022/09/01 10:08:46;;;;;;;4.53;0.80;;;20.00;66.70;;;;;;6193201;23;20016;-78
2022/09/01 10:11:38;;;;;;;3.55;0.75;;;20.00;66.20;;;;;;6220212;23;20310;-78
2022/09/01 10:14:17;;;;;;;3.83;0.70;;;20.00;66.20;;;;;;6219090;23;20009;-78
2022/09/01 10:16:46;;;;;;;1.80;0.50;;;20.00;66.40;;;;;;6192814;23;20016;-77
2022/09/01 10:19:14;;;;;;;5.55;0.68;;;20.00;66.40;;;;;;6218913;23;20027;-77
2022/09/01 10:21:43;;;;;;;3.22;0.60;;;20.00;66.40;;;;;;6219780;23;20021;-77
2022/09/01 10:24:19;;;;;;;3.38;0.73;;;20.10;66.40;;;;;;6220172;23;20321;-77
2022/09/01 10:26:48;;;;;;;3.95;0.65;;;20.00;66.30;;;;;;6193299;23;20020;-77
2022/09/01 10:29:31;;;;;;;2.67;0.50;;;20.10;66.30;;;;;;6219437;23;20028;-77
2022/09/01 10:31:59;;;;;;;0.82;0.47;;;20.10;66.10;;;;;;6219042;23;20036;-77
2022/09/01 10:34:32;;;;;;;2.45;0.50;;;20.10;66.10;;;;;;6219663;23;20020;-77
2022/09/01 10:36:58;;;;;;;1.90;0.30;;;20.10;66.10;;;;;;6219723;23;20117;-77
2022/09/01 10:39:24;;;;;;;2.28;0.50;;;20.10;66.20;;;;;;6219657;23;20036;-78
2022/09/01 10:41:55;;;;;;;3.95;1.15;;;20.10;66.80;;;;;;6219273;23;20021;-77
2022/09/01 10:44:32;;;;;;;3.60;0.57;;;20.10;66.10;;;;;;6218627;23;20024;-78
2022/09/01 10:47:09;;;;;;;1.85;0.32;;;20.10;66.00;;;;;;6219218;23;20024;-78
2022/09/01 10:49:34;;;;;;;2.13;0.30;;;20.10;65.80;;;;;;6218809;23;20096;-78
2022/09/01 10:52:01;;;;;;;2.45;0.60;;;20.10;66.00;;;;;;6219293;23;20020;-77
2022/09/01 10:54:38;;;;;;;2.15;0.40;;;20.10;66.10;;;;;;6219077;23;20013;-77
2022/09/01 10:57:11;;;;;;;1.95;0.20;;;20.10;65.90;;;;;;6218925;23;20092;-77
2022/09/01 10:59:38;;;;;;;3.10;0.40;;;20.20;66.10;;;;;;6219120;23;20120;-81
2022/09/01 11:02:07;;;;;;;2.20;0.40;;;20.10;65.80;;;;;;6192876;23;20095;-81
2022/09/01 11:04:39;;;;;;;3.05;0.60;;;20.20;65.20;;;;;;6193869;23;20031;-80
2022/09/01 11:07:17;;;;;;;2.60;0.43;;;20.10;65.10;;;;;;6192428;23;20017;-78
2022/09/01 11:10:03;;;;;;;2.80;0.32;;;20.20;64.80;;;;;;6192796;23;20024;-77
2022/09/01 11:12:40;;;;;;;2.03;0.30;;;20.20;64.50;;;;;;6218960;23;20023;-77
2022/09/01 11:15:34;;;;;;;2.70;0.47;;;20.20;64.40;;;;;;6218496;23;20410;-78
2022/09/01 11:18:01;;;;;;;;;;;20.30;63.50;;;;;;6192849;23;20097;-77
2022/09/01 11:20:33;;;;;;;3.17;0.40;;;20.30;63.20;;;;;;6218075;23;19994;-76
2022/09/01 11:23:25;;;;;;;2.72;0.90;;;20.30;63.80;;;;;;6192495;23;20099;-75
2022/09/01 11:56:09;;;;;;;2.42;0.88;;;20.30;63.70;;;;;;6211186;23;20042;-76
2022/09/01 11:58:38;;;;;;;3.10;0.63;;;20.30;64.50;;;;;;6192245;23;20020;-74
2022/09/01 12:01:18;;;;;;;3.38;0.50;;;20.40;64.70;;;;;;6192065;23;20020;-76
2022/09/01 12:03:47;;;;;;;4.00;0.40;;;20.40;63.20;;;;;;6217817;23;20025;-76
2022/09/01 12:06:22;;;;;;;1.88;0.50;;;20.40;62.90;;;;;;6192120;23;20421;-77
2022/09/01 12:08:56;;;;;;;1.60;0.40;;;20.50;62.10;;;;;;6219017;23;20021;-75
2022/09/01 12:11:31;;;;;;;3.45;0.45;;;20.50;62.10;;;;;;6218182;23;20027;-75
2022/09/01 12:14:06;;;;;;;1.85;0.50;;;20.50;62.30;;;;;;6218166;23;20091;-74
2022/09/01 12:16:40;;;;;;;4.00;0.50;;;20.50;62.80;;;;;;6215564;23;20516;-76
2022/09/01 12:19:20;;;;;;;3.83;0.50;;;20.50;63.20;;;;;;6216729;23;20472;-76
2022/09/01 12:22:03;;;;;;;3.78;0.50;;;20.40;63.00;;;;;;6218584;23;20038;-76
2022/09/01 12:24:33;;;;;;;1.15;0.38;;;20.50;62.40;;;;;;6217457;23;20021;-77
2022/09/01 12:27:00;;;;;;;2.13;0.40;;;20.50;62.50;;;;;;6191686;23;20088;-78
2022/09/01 12:29:28;;;;;;;5.25;0.50;;;20.50;62.20;;;;;;6217501;23;20392;-77
2022/09/01 12:31:54;;;;;;;5.88;1.17;;;20.50;61.60;;;;;;6217628;23;20027;-77
2022/09/01 12:34:26;;;;;;;6.80;0.68;;;20.60;61.60;;;;;;6217954;23;20069;-77
2022/09/01 12:37:20;;;;;;;5.95;0.60;;;20.60;61.70;;;;;;6217873;23;20021;-77
2022/09/01 12:39:57;;;;;;;4.38;0.73;;;20.60;61.20;;;;;;6217946;23;20020;-77
2022/09/01 12:42:32;;;;;;;3.33;0.63;;;20.60;61.20;;;;;;6192064;23;20044;-77
2022/09/01 12:45:08;;;;;;;7.53;1.00;;;20.60;61.40;;;;;;6168198;23;20027;-76
2022/09/01 12:47:34;;;;;;;6.57;0.60;;;20.60;60.80;;;;;;6217547;23;20429;-79
2022/09/01 12:50:04;;;;;;;9.18;0.80;;;20.60;61.30;;;;;;6217961;23;20017;-78
2022/09/01 12:52:32;;;;;;;6.10;0.73;;;20.60;62.20;;;;;;6192188;23;20107;-78
2022/09/01 12:54:58;;;;;;;7.03;0.75;;;20.60;61.00;;;;;;6191656;23;20024;-79
2022/09/01 12:57:26;;;;;;;2.03;0.35;;;20.60;60.20;;;;;;6218671;23;20298;-78
2022/09/01 13:00:08;;;;;;;2.25;0.43;;;20.60;59.70;;;;;;6218739;23;20048;-79
2022/09/01 13:02:37;;;;;;;1.85;0.32;;;20.60;58.40;;;;;;6218610;23;20278;-78
2022/09/01 13:05:25;;;;;;;2.80;0.30;;;20.60;58.70;;;;;;6217884;23;20085;-78
2022/09/01 13:07:56;;;;;;;3.05;0.25;;;20.70;58.20;;;;;;6166938;23;20021;-80
2022/09/01 13:10:24;;;;;;;3.30;0.50;;;20.60;58.30;;;;;;6191395;23;20060;-78
2022/09/01 13:12:50;;;;;;;1.92;0.30;;;20.60;58.40;;;;;;6217896;23;20028;-78
2022/09/01 13:15:16;;;;;;;5.32;0.60;;;20.70;58.20;;;;;;6218082;23;20021;-80
2022/09/01 13:17:42;;;;;;;3.10;0.70;;;20.60;58.20;;;;;;6217910;23;20162;-80
2022/09/01 13:20:10;;;;;;;10.13;1.00;;;20.70;58.70;;;;;;6192562;23;20293;-77
2022/09/01 13:22:37;;;;;;;5.85;0.88;;;20.60;58.80;;;;;;6217764;23;20063;-77
2022/09/01 13:25:04;;;;;;;6.63;0.85;;;20.70;59.10;;;;;;6217749;23;20095;-77
2022/09/01 13:27:29;;;;;;;2.65;0.60;;;20.70;58.70;;;;;;6167401;23;20417;-74
2022/09/01 13:29:55;;;;;;;1.30;0.63;;;20.70;59.20;;;;;;6217636;23;20108;-80
2022/09/01 13:32:22;;;;;;;9.00;0.65;;;20.70;58.80;;;;;;6165456;23;20078;-74
2022/09/01 13:34:50;;;;;;;5.43;0.75;;;20.70;58.90;;;;;;6215137;23;20013;-78
2022/09/01 14:25:44;;;;;;;2.80;0.43;;;20.90;60.10;;;;;;6210057;23;20025;-77
2022/09/01 14:28:11;;;;;;;3.97;0.43;;;20.90;60.20;;;;;;6191249;23;20021;-78
2022/09/01 14:30:40;;;;;;;4.15;0.85;;;20.90;60.50;;;;;;6217499;23;20033;-78
2022/09/01 14:33:06;;;;;;;4.60;1.00;;;20.90;60.50;;;;;;6218794;23;20024;-78
2022/09/01 14:35:32;;;;;;;6.40;0.80;;;21.00;61.20;;;;;;6219185;23;20447;-76
2022/09/01 14:37:58;;;;;;;6.35;0.88;;;21.00;61.20;;;;;;6219915;23;20021;-83
2022/09/01 14:40:24;;;;;;;9.00;1.08;;;21.00;61.60;;;;;;6193266;23;20448;-79
2022/09/01 14:42:51;;;;;;;5.50;1.33;;;21.00;61.90;;;;;;6218739;23;20021;-76
2022/09/01 14:45:27;;;;;;;2.47;0.40;;;21.00;62.20;;;;;;6218604;23;20095;-81
2022/09/01 14:47:56;;;;;;;2.42;0.40;;;21.00;61.20;;;;;;6190100;23;20016;-75
2022/09/01 14:50:23;;;;;;;2.60;0.47;;;21.00;61.00;;;;;;6216081;23;20048;-75
2022/09/01 14:52:51;;;;;;;4.15;0.50;;;21.00;60.20;;;;;;6218150;23;20012;-76
2022/09/01 14:55:18;;;;;;;1.83;0.50;;;21.10;60.30;;;;;;6218734;23;20024;-76
2022/09/01 14:57:43;;;;;;;2.50;0.50;;;21.10;60.00;;;;;;6218475;23;20016;-77
2022/09/01 15:00:11;;;;;;;1.60;0.50;;;21.20;59.20;;;;;;6193072;23;20020;-76
2022/09/01 15:02:38;;;;;;;6.45;0.65;;;21.20;58.90;;;;;;6218564;23;20021;-75
2022/09/01 15:05:04;;;;;;;1.60;0.40;;;21.20;58.60;;;;;;6218809;23;20017;-76
2022/09/01 15:07:30;;;;;;;2.15;0.40;;;21.30;58.70;;;;;;6219022;23;20019;-75
2022/09/01 15:09:57;;;;;;;1.52;0.30;;;21.20;58.50;;;;;;6219044;23;20021;-75
2022/09/01 15:12:24;;;;;;;4.40;0.40;;;21.20;58.40;;;;;;6218682;23;20027;-76
2022/09/01 15:14:50;;;;;;;1.90;0.40;;;21.30;58.90;;;;;;6218595;23;20056;-74
2022/09/01 15:17:16;;;;;;;1.02;0.40;;;21.30;59.40;;;;;;6218936;23;20368;-75
2022/09/01 15:19:41;;;;;;;2.45;0.57;;;21.30;59.60;;;;;;6217558;23;20023;-75
2022/09/01 15:22:09;;;;;;;1.95;0.90;;;21.30;59.80;;;;;;6218510;23;20401;-75
2022/09/01 15:24:35;;;;;;;2.97;0.70;;;21.20;59.80;;;;;;6218938;23;20059;-75
2022/09/01 15:27:01;;;;;;;4.05;0.52;;;21.30;59.70;;;;;;6218058;23;20023;-75
2022/09/01 15:29:33;;;;;;;2.47;0.40;;;21.20;59.80;;;;;;6218899;23;20096;-75
2022/09/01 15:32:00;;;;;;;2.05;0.45;;;21.20;60.30;;;;;;6218954;23;20020;-75
2022/09/01 15:34:26;;;;;;;2.70;0.35;;;21.10;60.40;;;;;;6218665;23;20016;-75
2022/09/01 15:36:52;;;;;;;2.58;0.32;;;21.10;60.50;;;;;;6218557;23;20114;-75
2022/09/01 15:39:18;;;;;;;1.73;0.35;;;21.10;60.50;;;;;;6218721;23;20020;-75
2022/09/01 15:41:44;;;;;;;2.25;0.45;;;21.10;60.60;;;;;;6218537;23;20197;-74
2022/09/01 15:44:09;;;;;;;1.67;0.30;;;21.10;60.60;;;;;;6217692;23;20083;-75
2022/09/01 15:46:37;;;;;;;0.50;0.20;;;21.10;61.10;;;;;;6218032;23;20107;-76
2022/09/01 15:49:08;;;;;;;6.88;0.70;;;21.10;60.70;;;;;;6218919;23;20091;-75
2022/09/01 15:51:40;;;;;;;5.78;0.45;;;21.10;61.20;;;;;;6219297;23;20333;-74
2022/09/01 15:54:13;;;;;;;4.30;0.50;;;21.20;61.30;;;;;;6218412;23;20012;-76
2022/09/01 15:56:39;;;;;;;3.72;0.63;;;21.10;60.70;;;;;;6218422;23;20048;-74
2022/09/01 15:59:06;;;;;;;1.92;0.40;;;21.10;60.80;;;;;;6219242;23;20013;-74
2022/09/01 16:01:35;;;;;;;3.45;0.40;;;21.10;60.80;;;;;;6218571;23;20052;-76
2022/09/01 16:04:01;;;;;;;2.00;0.30;;;21.10;60.70;;;;;;6218818;23;20059;-76
2022/09/01 16:06:27;;;;;;;5.15;0.55;;;21.10;61.10;;;;;;6217490;23;20062;-74
2022/09/01 16:08:53;;;;;;;1.35;0.40;;;21.10;61.10;;;;;;6218450;23;20020;-75
2022/09/01 16:11:23;;;;;;;1.75;0.30;;;21.10;61.20;;;;;;6217843;23;20048;-76
2022/09/01 16:13:52;;;;;;;4.72;0.60;;;21.10;61.10;;;;;;6217514;23;20025;-74
2022/09/01 16:16:39;;;;;;;3.17;0.40;;;21.10;61.40;;;;;;6218434;23;20016;-75
2022/09/01 16:19:27;;;;;;;1.42;0.30;;;21.10;61.50;;;;;;6218447;23;20100;-76
2022/09/01 16:21:52;;;;;;;1.73;0.20;;;21.00;61.40;;;;;;6218367;23;20028;-76
2022/09/01 16:24:19;;;;;;;3.60;0.73;;;21.00;61.60;;;;;;6218329;23;20013;-78
2022/09/01 16:26:47;;;;;;;2.10;0.40;;;21.00;61.20;;;;;;6218351;23;20421;-75
2022/09/01 16:29:41;;;;;;;2.78;0.47;;;21.00;61.00;;;;;;6218271;23;20027;-74
2022/09/01 18:30:55;;;;;;;2.03;0.50;;;21.00;63.40;;;;;;6139629;23;20064;-73
2022/09/01 18:33:48;;;;;;;3.42;0.65;;;20.90;63.50;;;;;;6130262;23;20014;-73
2022/09/01 18:36:44;;;;;;;3.88;0.60;;;21.00;63.50;;;;;;6129567;23;20017;-75
2022/09/01 18:39:37;;;;;;;2.58;0.70;;;20.90;63.50;;;;;;6127158;23;20096;-72
2022/09/01 18:42:11;;;;;;;2.50;0.40;;;20.90;63.60;;;;;;6129860;23;20022;-75
2022/09/01 18:44:39;;;;;;;2.85;0.75;;;20.80;63.70;;;;;;6130555;23;20014;-72
2022/09/01 18:47:15;;;;;;;3.20;0.68;;;20.80;63.80;;;;;;6129844;23;20022;-75
2022/09/01 18:49:40;;;;;;;2.08;0.68;;;20.70;63.80;;;;;;6129864;23;20021;-74
2022/09/01 18:52:06;;;;;;;3.67;0.70;;;20.70;63.90;;;;;;6129795;23;20523;-75
2022/09/01 18:54:47;;;;;;;2.05;0.45;;;20.60;63.80;;;;;;6129884;23;20311;-73
2022/09/01 18:57:19;;;;;;;1.95;0.50;;;20.60;63.90;;;;;;6129394;23;20501;-75
2022/09/01 18:59:58;;;;;;;2.83;0.55;;;20.60;64.10;;;;;;6129742;23;20075;-72
2022/09/01 19:02:58;;;;;;;2.33;0.50;;;20.50;64.10;;;;;;6130735;23;20298;-73
2022/09/01 19:05:43;;;;;;;1.65;0.50;;;20.50;64.10;;;;;;6129770;23;20014;-76
2022/09/01 19:08:14;;;;;;;3.08;0.60;;;20.50;64.50;;;;;;6130467;23;20017;-76
2022/09/01 19:11:06;;;;;;;2.13;0.50;;;20.50;64.20;;;;;;6104376;23;20089;-75
2022/09/01 19:13:42;;;;;;;1.85;0.52;;;20.40;63.80;;;;;;6129531;23;20022;-75
2022/09/01 19:16:14;;;;;;;2.00;0.70;;;20.40;63.80;;;;;;6128329;23;20022;-76
2022/09/01 19:18:42;;;;;;;2.40;0.85;;;20.30;63.80;;;;;;6129349;23;20411;-80
2022/09/01 19:21:31;;;;;;;3.55;0.88;;;20.30;63.80;;;;;;6128598;23;20446;-76
2022/09/01 19:24:14;;;;;;;1.95;0.50;;;20.20;63.60;;;;;;6129282;23;20081;-74
2022/09/01 19:26:43;;;;;;;5.07;0.52;;;20.20;64.40;;;;;;6128388;23;20445;-75
2022/09/01 19:29:18;;;;;;;1.42;0.40;;;20.20;63.90;;;;;;6129270;23;20024;-73
2022/09/01 19:31:51;;;;;;;1.45;0.77;;;20.20;63.90;;;;;;6159049;23;20028;-73
2022/09/01 19:34:20;;;;;;;;;;;20.20;63.80;;;;;;6159882;23;20076;-79
2022/09/01 19:36:58;;;;;;;2.78;0.57;;;20.10;63.70;;;;;;6133532;23;19916;-79
2022/09/01 19:39:31;;;;;;;2.20;0.70;;;20.10;63.80;;;;;;6159761;23;20327;-78
2022/09/01 19:42:07;;;;;;;1.55;0.70;;;20.10;63.80;;;;;;6158764;23;20033;-78
2022/09/01 19:45:08;;;;;;;2.85;0.75;;;20.00;63.70;;;;;;6158570;23;20084;-77
2022/09/01 19:47:36;;;;;;;3.05;0.70;;;20.00;63.60;;;;;;6113617;23;20017;-81
2022/09/01 19:50:08;;;;;;;2.40;0.50;;;20.00;63.70;;;;;;6157289;23;20014;-80
2022/09/01 19:52:55;;;;;;;2.00;0.90;;;20.00;63.70;;;;;;6158356;23;20088;-74
2022/09/01 19:55:37;;;;;;;1.40;0.50;;;19.90;63.70;;;;;;6157561;23;20022;-76
2022/09/01 19:58:05;;;;;;;1.80;0.60;;;19.90;63.80;;;;;;6158645;23;20041;-76
2022/09/01 20:01:00;;;;;;;1.85;0.60;;;19.90;63.90;;;;;;6158673;23;20021;-76
2022/09/01 20:03:46;;;;;;;2.17;0.57;;;19.80;64.00;;;;;;6158714;23;20306;-76
2022/09/01 20:06:23;;;;;;;3.10;0.70;;;19.80;64.00;;;;;;6158469;23;20374;-76
2022/09/01 20:09:17;;;;;;;2.60;0.60;;;19.80;64.00;;;;;;6158520;23;20025;-75
2022/09/01 20:11:43;;;;;;;;;;;19.80;64.20;;;;;;6159099;23;20095;-75
2022/09/01 20:14:12;;;;;;;4.53;0.90;;;19.70;64.20;;;;;;6158448;23;19916;-74
2022/09/01 20:16:48;;;;;;;2.08;0.60;;;19.70;64.30;;;;;;6158536;23;20024;-74
2022/09/01 20:19:16;;;;;;;0.98;0.43;;;19.70;64.40;;;;;;6158438;23;20053;-72
2022/09/01 20:21:45;;;;;;;2.08;0.60;;;19.70;64.50;;;;;;6158907;23;20022;-76
2022/09/01 20:24:36;;;;;;;1.58;0.68;;;19.80;64.50;;;;;;6158613;23;20325;-74
2022/09/01 20:27:13;;;;;;;1.55;0.73;;;19.80;64.40;;;;;;6132425;23;20021;-74
2022/09/01 20:30:37;;;;;;;1.88;0.70;;;19.80;64.40;;;;;;6158521;23;20418;-74
2022/09/01 20:33:07;;;;;;;1.45;0.60;;;19.80;64.50;;;;;;6039840;23;20023;-75
2022/09/01 20:35:40;;;;;;;2.63;0.60;;;19.80;64.50;;;;;;6039713;23;20023;-74
2022/09/01 20:41:27;;;;;;;7.80;0.77;;;19.90;64.60;;;;;;6131243;23;20322;-78
2022/09/01 20:43:56;;;;;;;2.17;0.77;;;19.90;64.60;;;;;;6157843;23;20441;-75
2022/09/01 20:46:24;;;;;;;2.65;0.70;;;19.90;64.60;;;;;;6158337;23;20049;-80
2022/09/01 20:48:50;;;;;;;2.20;0.88;;;19.90;64.60;;;;;;6158750;23;20433;-78
2022/09/01 20:51:38;;;;;;;1.73;0.60;;;19.90;64.50;;;;;;6158928;23;20025;-74
